Terminal Aerodrome Forecast
Issued by NWS Knoxville/Tri Cities, TN

Home | Current Version | Previous Version | Text Only | Print | Product List | Glossary On
Versions: 1 2 3 4 5 6 7 8 9 10 11 12 13 14 15 16 17 18 19 20 21 22 23 24 25 26 27 28 29 30 31 32 33 34 35 36 37 38 39 40 41 42
000
FTUS44 KMRX 021725
TAFTRI
TAF
KTRI 021725Z 0218/0318 23008KT P6SM VCSH SCT020 BKN100
      TEMPO 0218/0220 -SHRA BKN025
     FM022000 23008KT P6SM VCTS SCT025CB BKN120
     FM030100 22004KT 6SM BR VCTS SCT015CB BKN090
     FM030500 23004KT 5SM -SHRA BR VCTS SCT010 BKN020CB
     FM031500 24007KT P6SM VCTS SCT015CB BKN035=

USA.gov is the U.S. government's official web portal to all federal, state and local government web resources and services.